METAR Data
IDs: Format: Raw Decoded Include TAF

Data at: 1953 UTC 17 Nov 2019

PTKK 171850Z VRB04KT 15SM FEW014 SCT120 OVC280 25/24 A2982 RMK SLP100 T02510242